RJFR/KKJ METAR and TAF weather

Enter ICAO airport designator
Station Type Date Time Source
RJFR METAR 2019/08/21 02:00 UTC NOAA

RJFR 210200Z 13007KT 100V170 9999 FEW030 SCT045 BKN/// 29/26 Q1010


Station Type Date Time Source
RJFR Decoded METAR 2019/08/21 02:00 UTC NOAA

Station name not available
Aug 20, 2019 - 10:00 PM EDT / 2019.08.21 0200 UTC
Wind: from the SE (130 degrees) at 8 MPH (7 KT) (direction variable):0
Visibility: greater than 7 mile(s):0
Sky conditions: mostly cloudy
Temperature: 84 F (29 C)
Dew Point: 78 F (26 C)
Relative Humidity: 83%
Pressure (altimeter): 29.83 in. Hg (1010 hPa)
ob: RJFR 210200Z 13007KT 100V170 9999 FEW030 SCT045 BKN/// 29/26 Q1010
cycle: 2

Station Type Date Time Source
RJFR TAF 2019/08/20 19:00 UTC NOAA

TAF
AMD RJFR 201935Z 2019/2200 14007KT 9999 FEW015 SCT045
TEMPO 2019/2021 FEW004 BKN007 BKN010
BECMG 2104/2106 06005KT
TEMPO 2105/2109 3000 TSRA BR FEW005 BKN015 BKN025 FEW025CB
BECMG 2109/2112 18004KT

Example: see airport list